Time;durP1;ratioP1;P1;durP2;ratioP2;P2;SDS_P1;SDS_P2;PMS_P1;PMS_P2;Temp;Humidity;BMP_temperature;BMP_pressure;BME280_temperature;BME280_humidity;BME280_pressure;Samples;Min_cycle;Max_cycle;Signal;HPM_P1;HPM_P2
2021/11/10 00:00:23;;;;;;;105.53;53.85;;;;;;;3.01;98.56;102357.06;5071636;28;20028;-70
2021/11/10 00:02:48;;;;;;;97.72;51.05;;;;;;;2.96;98.38;102353.63;5073320;28;20036;-70
2021/11/10 00:05:16;;;;;;;102.93;52.83;;;;;;;2.95;98.40;102349.25;5072848;28;20023;-69
2021/11/10 00:07:42;;;;;;;102.13;52.10;;;;;;;2.92;98.11;102354.63;5054499;28;20033;-69
2021/11/10 00:10:10;;;;;;;103.38;51.92;;;;;;;2.89;97.62;102353.81;5072645;28;20476;-69
2021/11/10 00:12:36;;;;;;;96.82;51.85;;;;;;;2.89;98.29;102352.03;5072553;28;20035;-69
2021/11/10 00:15:03;;;;;;;101.00;50.88;;;;;;;2.87;98.08;102355.63;5072570;28;20021;-70
2021/11/10 00:17:28;;;;;;;104.43;52.20;;;;;;;2.83;98.00;102359.28;5054432;28;20043;-69
2021/11/10 00:19:54;;;;;;;105.88;53.05;;;;;;;2.83;97.75;102353.97;5072100;28;20025;-69
2021/11/10 00:22:20;;;;;;;112.05;54.40;;;;;;;2.78;97.62;102359.38;5072547;28;20047;-69
2021/11/10 00:24:45;;;;;;;102.35;51.70;;;;;;;2.76;97.36;102355.00;5054440;28;20063;-69
2021/11/10 00:27:11;;;;;;;106.18;53.45;;;;;;;2.77;97.74;102370.88;5072222;28;20024;-69
2021/11/10 00:29:36;;;;;;;100.97;52.95;;;;;;;2.74;97.84;102368.28;5054247;28;20514;-70
2021/11/10 00:32:02;;;;;;;98.28;51.83;;;;;;;2.68;98.06;102363.16;5072304;28;20546;-68
2021/11/10 00:34:28;;;;;;;95.60;49.00;;;;;;;2.67;97.43;102357.88;5072097;28;20047;-70
2021/11/10 00:36:53;;;;;;;98.75;50.25;;;;;;;2.69;97.48;102356.06;5072045;28;20107;-70
2021/11/10 00:39:19;;;;;;;95.10;48.15;;;;;;;2.64;97.14;102356.16;5071976;28;20020;-68
2021/11/10 00:41:44;;;;;;;95.70;49.10;;;;;;;2.67;96.98;102364.03;5072215;28;20028;-69
2021/11/10 00:44:10;;;;;;;97.65;50.40;;;;;;;2.62;97.32;102358.00;5053958;28;20031;-69
2021/11/10 00:46:35;;;;;;;98.97;49.00;;;;;;;2.65;97.27;102359.69;5071621;28;20034;-70
2021/11/10 00:49:01;;;;;;;98.65;50.25;;;;;;;2.59;96.95;102359.81;5071869;28;20033;-69
2021/11/10 00:51:28;;;;;;;95.82;50.17;;;;;;;2.52;96.63;102345.88;5053837;28;20244;-69
2021/11/10 00:53:54;;;;;;;95.18;49.47;;;;;;;2.55;96.91;102353.75;5053489;28;20482;-69
2021/11/10 00:56:20;;;;;;;90.97;48.78;;;;;;;2.49;96.62;102339.75;5072128;28;20029;-70
2021/11/10 00:58:45;;;;;;;89.70;48.03;;;;;;;2.50;96.45;102347.66;5053653;28;20021;-71
2021/11/10 01:01:11;;;;;;;87.90;45.42;;;;;;;2.46;96.52;102350.41;5071550;28;20033;-70
2021/11/10 01:03:37;;;;;;;88.32;44.92;;;;;;;2.48;97.03;102357.41;5071700;28;20043;-70
2021/11/10 01:06:02;;;;;;;87.35;46.63;;;;;;;2.51;97.58;102361.78;5053500;28;20131;-70
2021/11/10 01:08:28;;;;;;;95.55;48.58;;;;;;;2.47;97.32;102345.09;5071556;28;20031;-70
2021/11/10 01:10:56;;;;;;;95.30;49.22;;;;;;;2.46;97.49;102348.66;5070758;28;20143;-69
2021/11/10 01:13:22;;;;;;;83.45;44.83;;;;;;;2.45;97.78;102346.03;5071757;28;20456;-71
2021/11/10 01:15:48;;;;;;;87.57;45.47;;;;;;;2.42;97.36;102341.69;5072029;28;20056;-69
2021/11/10 01:18:14;;;;;;;86.97;46.42;;;;;;;2.41;97.50;102342.56;5071293;28;20040;-70
2021/11/10 01:20:40;;;;;;;91.55;46.58;;;;;;;2.41;97.12;102339.06;5071161;28;20035;-69
2021/11/10 01:23:08;;;;;;;83.03;44.75;;;;;;;2.38;97.28;102334.69;5071089;28;20103;-70
2021/11/10 01:25:33;;;;;;;81.95;45.08;;;;;;;2.36;97.31;102333.88;5071317;28;20032;-70
2021/11/10 01:27:59;;;;;;;82.05;44.28;;;;;;;2.38;97.27;102339.13;5071237;28;20047;-70
2021/11/10 01:30:25;;;;;;;86.60;44.38;;;;;;;2.30;97.40;102328.72;5071126;28;20063;-70
2021/11/10 01:32:50;;;;;;;81.68;42.90;;;;;;;2.33;97.06;102326.00;5071565;28;20341;-70
2021/11/10 01:35:16;;;;;;;83.38;43.78;;;;;;;2.28;96.89;102325.22;5070865;28;20037;-69
2021/11/10 01:37:43;;;;;;;80.68;43.65;;;;;;;2.27;96.97;102316.41;5071039;28;20409;-68
2021/11/10 01:40:10;;;;;;;93.72;44.33;;;;;;;2.29;96.34;102326.97;5070810;28;20140;-69
2021/11/10 01:42:41;;;;;;;83.15;44.50;;;;;;;2.24;96.64;102313.84;5070847;28;20020;-69
2021/11/10 01:45:09;;;;;;;74.03;39.63;;;;;;;2.28;97.77;102309.31;5070999;28;20044;-69
2021/11/10 01:47:35;;;;;;;74.30;40.85;;;;;;;2.38;99.79;102313.50;5070736;28;20020;-69
2021/11/10 01:50:01;;;;;;;74.47;39.60;;;;;;;2.52;100.00;102316.72;5070676;28;20028;-68
2021/11/10 01:52:27;;;;;;;75.30;40.42;;;;;;;2.60;100.00;102308.59;5052749;28;20025;-70
2021/11/10 01:54:52;;;;;;;73.85;38.60;;;;;;;2.75;100.00;102318.81;5070510;28;20049;-70
2021/11/10 01:57:18;;;;;;;73.68;40.60;;;;;;;2.81;100.00;102302.78;5071024;28;20029;-69
2021/11/10 01:59:47;;;;;;;76.60;40.42;;;;;;;2.92;100.00;102314.88;5070714;28;20051;-70
2021/11/10 02:02:26;;;;;;;74.53;41.33;;;;;;;3.02;100.00;102312.84;5068884;28;20081;-69
2021/11/10 02:04:52;;;;;;;76.13;39.08;;;;;;;3.10;100.00;102305.59;5070667;28;20093;-69
2021/11/10 02:07:19;;;;;;;79.82;42.20;;;;;;;3.19;100.00;102306.19;5070795;28;20527;-69
2021/11/10 02:09:46;;;;;;;74.13;40.55;;;;;;;3.21;100.00;102296.44;5070347;28;20029;-69
2021/11/10 02:12:12;;;;;;;75.70;40.88;;;;;;;3.29;100.00;102309.50;5070279;28;20020;-68
2021/11/10 02:14:39;;;;;;;75.15;39.67;;;;;;;3.31;100.00;102313.84;5052383;28;20024;-69
2021/11/10 02:17:06;;;;;;;76.68;39.35;;;;;;;3.34;100.00;102310.22;5070261;28;20480;-70
2021/11/10 02:19:33;;;;;;;67.40;39.63;;;;;;;3.29;100.00;102302.41;5069669;28;20403;-71
2021/11/10 02:22:00;;;;;;;76.05;39.90;;;;;;;3.31;100.00;102308.53;5069996;28;20032;-69
2021/11/10 02:24:28;;;;;;;76.35;39.97;;;;;;;3.37;100.00;102313.69;5069466;28;20365;-70
2021/11/10 02:26:54;;;;;;;74.13;39.63;;;;;;;3.38;100.00;102322.50;5052110;28;20131;-71
2021/11/10 02:29:26;;;;;;;67.20;37.00;;;;;;;3.35;100.00;102304.03;5052166;28;20027;-70
2021/11/10 02:31:53;;;;;;;71.07;39.53;;;;;;;3.32;100.00;102293.50;5052252;28;20039;-71
2021/11/10 02:34:19;;;;;;;69.82;37.88;;;;;;;3.35;100.00;102304.03;5070298;28;20392;-71
2021/11/10 02:36:45;;;;;;;67.30;37.90;;;;;;;3.35;100.00;102296.94;5070043;28;20021;-70
2021/11/10 02:39:22;;;;;;;61.13;35.85;;;;;;;3.40;100.00;102287.09;5069755;28;20024;-69
2021/11/10 02:41:48;;;;;;;72.65;37.55;;;;;;;3.43;100.00;102272.88;5069895;28;20044;-69
2021/11/10 02:44:18;;;;;;;69.57;36.42;;;;;;;3.45;100.00;102281.66;5069729;28;20131;-69
2021/11/10 02:46:45;;;;;;;65.45;37.20;;;;;;;3.50;100.00;102295.66;5051776;28;20782;-70
2021/11/10 02:49:12;;;;;;;67.55;37.35;;;;;;;3.53;100.00;102285.84;5069720;28;20021;-70
2021/11/10 02:52:04;;;;;;;68.82;38.95;;;;;;;3.61;100.00;102291.78;5069877;28;20029;-70
2021/11/10 02:54:34;;;;;;;71.00;39.20;;;;;;;3.66;100.00;102291.66;5069529;28;20079;-70
2021/11/10 02:57:03;;;;;;;66.10;37.67;;;;;;;3.70;100.00;102295.97;5068729;28;20115;-71
2021/11/10 02:59:28;;;;;;;65.20;35.22;;;;;;;3.74;100.00;102292.34;5069989;28;20025;-71
2021/11/10 03:01:55;;;;;;;69.18;37.08;;;;;;;3.77;100.00;102282.47;5070815;28;20036;-70
2021/11/10 03:04:24;;;;;;;66.03;38.10;;;;;;;3.80;100.00;102282.41;5071106;28;20085;-70
2021/11/10 03:06:50;;;;;;;65.93;37.38;;;;;;;3.83;100.00;102286.75;5070561;28;20108;-69
2021/11/10 03:09:19;;;;;;;61.88;35.45;;;;;;;3.90;100.00;102285.69;5052274;28;20085;-69
2021/11/10 03:11:45;;;;;;;71.05;38.35;;;;;;;3.90;100.00;102277.72;5052033;28;20033;-69
2021/11/10 03:14:11;;;;;;;66.78;36.92;;;;;;;3.94;100.00;102292.63;5070739;28;20031;-68
2021/11/10 03:16:37;;;;;;;68.57;36.70;;;;;;;3.93;100.00;102275.81;5070513;28;20028;-70
2021/11/10 03:19:03;;;;;;;59.97;35.13;;;;;;;3.92;100.00;102271.44;5070372;28;20480;-70
2021/11/10 03:21:28;;;;;;;64.32;36.95;;;;;;;3.91;100.00;102267.06;5070720;28;20024;-69
2021/11/10 03:23:54;;;;;;;63.05;36.47;;;;;;;3.94;100.00;102279.34;5070543;28;20044;-70
2021/11/10 03:26:21;;;;;;;67.70;37.63;;;;;;;3.91;100.00;102276.78;5052552;28;20046;-70
2021/11/10 03:28:48;;;;;;;60.88;35.92;;;;;;;3.84;100.00;102265.47;5052435;28;20056;-70
2021/11/10 03:31:13;;;;;;;64.28;36.05;;;;;;;3.92;100.00;102270.56;5052175;28;20031;-70
2021/11/10 03:33:39;;;;;;;65.18;36.95;;;;;;;3.91;100.00;102268.81;5070036;28;20360;-72
2021/11/10 03:36:04;;;;;;;65.30;36.75;;;;;;;3.90;100.00;102269.75;5076144;28;20528;-71
2021/11/10 03:38:30;;;;;;;63.40;35.53;;;;;;;3.80;100.00;102260.28;5073270;28;20444;-70
2021/11/10 03:40:55;;;;;;;63.40;35.63;;;;;;;3.78;100.00;102256.81;5074311;28;20055;-69
2021/11/10 03:43:21;;;;;;;62.83;36.65;;;;;;;3.82;100.00;102264.66;5074069;28;20037;-69
2021/11/10 03:45:47;;;;;;;67.05;36.05;;;;;;;3.78;100.00;102248.88;5055772;28;20028;-71
2021/11/10 03:48:12;;;;;;;62.88;35.60;;;;;;;3.81;100.00;102246.13;5073712;28;20210;-71
2021/11/10 03:50:39;;;;;;;68.65;36.80;;;;;;;3.85;100.00;102245.09;5073519;28;20487;-68
2021/11/10 03:53:05;;;;;;;61.72;35.45;;;;;;;3.89;100.00;102252.94;5054903;28;20040;-70
2021/11/10 03:55:38;;;;;;;69.47;36.72;;;;;;;3.90;100.00;102237.91;5073149;28;20048;-70
2021/11/10 03:58:06;;;;;;;65.50;36.03;;;;;;;3.92;100.00;102236.94;5073311;28;20036;-70
2021/11/10 04:00:31;;;;;;;61.17;34.75;;;;;;;4.00;100.00;102239.34;5072543;28;20499;-70
2021/11/10 04:02:57;;;;;;;57.53;33.70;;;;;;;3.98;100.00;102226.13;5072385;28;20036;-70
2021/11/10 04:05:24;;;;;;;62.92;36.53;;;;;;;4.07;100.00;102230.28;5071461;28;20024;-70
2021/11/10 04:07:49;;;;;;;59.00;33.20;;;;;;;4.09;100.00;102241.69;5071722;28;20016;-70
2021/11/10 04:10:15;;;;;;;62.38;34.78;;;;;;;4.14;100.00;102234.47;5071937;28;20047;-69
2021/11/10 04:12:41;;;;;;;59.83;32.60;;;;;;;4.09;100.00;102231.97;5072407;28;20120;-69
2021/11/10 04:15:07;;;;;;;61.03;34.60;;;;;;;4.09;100.00;102223.13;5072337;28;20104;-69
2021/11/10 04:17:32;;;;;;;61.03;32.58;;;;;;;4.13;100.00;102230.94;5054379;28;20074;-69
2021/11/10 04:19:58;;;;;;;56.65;32.78;;;;;;;4.14;100.00;102234.47;5053739;28;20127;-70
2021/11/10 04:22:23;;;;;;;66.03;35.90;;;;;;;4.15;100.00;102222.94;5072312;28;20496;-70
2021/11/10 04:24:50;;;;;;;59.88;33.85;;;;;;;4.13;100.00;102214.16;5072122;28;20052;-71
2021/11/10 04:27:20;;;;;;;56.05;32.20;;;;;;;4.15;100.00;102212.31;5071878;28;20541;-70
2021/11/10 04:29:49;;;;;;;56.70;33.97;;;;;;;4.12;100.00;102210.63;5054028;28;20055;-70
2021/11/10 04:32:16;;;;;;;57.42;33.83;;;;;;;4.13;100.00;102207.03;5067976;28;20047;-71
2021/11/10 04:34:42;;;;;;;63.55;35.95;;;;;;;4.13;100.00;102214.16;5069231;28;20480;-70
2021/11/10 04:37:11;;;;;;;56.35;34.00;;;;;;;4.09;100.00;102213.38;5053458;28;20016;-70
2021/11/10 04:39:37;;;;;;;57.03;32.85;;;;;;;4.06;100.00;102201.97;5071528;28;20021;-70
2021/11/10 04:42:04;;;;;;;57.28;32.50;;;;;;;4.06;100.00;102212.59;5071831;28;20091;-70
2021/11/10 04:44:29;;;;;;;55.75;31.67;;;;;;;3.95;100.00;102207.63;5071610;28;20032;-70
2021/11/10 04:46:56;;;;;;;56.53;33.85;;;;;;;3.91;100.00;102206.00;5070505;28;20028;-69
2021/11/10 04:49:22;;;;;;;58.10;33.58;;;;;;;3.85;100.00;102198.22;5071150;28;20111;-71
2021/11/10 04:51:48;;;;;;;59.90;34.50;;;;;;;3.78;100.00;102204.59;5071270;28;20091;-71
2021/11/10 04:54:18;;;;;;;60.70;33.75;;;;;;;3.74;100.00;102210.06;5071295;28;20107;-70
2021/11/10 04:56:44;;;;;;;62.25;34.65;;;;;;;3.61;99.58;102201.59;5072286;28;20021;-69
2021/11/10 04:59:10;;;;;;;62.88;35.22;;;;;;;3.44;99.33;102189.72;5072977;28;20032;-70
2021/11/10 05:01:42;;;;;;;60.40;36.05;;;;;;;3.45;99.29;102202.09;5054670;28;20025;-69
2021/11/10 05:04:08;;;;;;;64.65;36.38;;;;;;;3.37;98.60;102204.06;5072714;28;20059;-70
2021/11/10 05:06:33;;;;;;;64.75;36.05;;;;;;;3.24;98.81;102202.69;5072894;28;20424;-72
2021/11/10 05:08:59;;;;;;;61.60;36.20;;;;;;;3.22;98.83;102215.13;5072515;28;20032;-71
2021/11/10 05:11:24;;;;;;;62.67;35.70;;;;;;;3.19;98.23;102220.50;5055960;28;20059;-71
2021/11/10 05:13:51;;;;;;;65.93;35.42;;;;;;;3.11;98.45;102222.50;5071321;28;20450;-71
2021/11/10 05:16:18;;;;;;;68.95;36.20;;;;;;;3.06;98.56;102221.75;5051931;28;20506;-70
2021/11/10 05:18:44;;;;;;;63.78;35.45;;;;;;;2.96;98.68;102217.63;5069731;28;20021;-70
2021/11/10 05:21:09;;;;;;;59.80;35.08;;;;;;;2.90;98.72;102225.72;5070244;28;20036;-70
2021/11/10 05:23:35;;;;;;;62.33;34.78;;;;;;;2.86;98.86;102224.91;5071652;28;20016;-70
2021/11/10 05:26:01;;;;;;;62.30;34.33;;;;;;;2.76;98.46;102211.94;5050498;28;20025;-71
2021/11/10 05:28:26;;;;;;;64.20;34.58;;;;;;;2.76;98.54;102225.19;5051015;28;20044;-71
2021/11/10 05:30:52;;;;;;;59.17;32.55;;;;;;;2.75;99.60;102226.97;5051543;28;20037;-71
2021/11/10 05:33:18;;;;;;;57.72;33.38;;;;;;;2.79;100.00;102244.53;5051388;28;20377;-71
2021/11/10 05:35:44;;;;;;;61.47;33.58;;;;;;;2.80;100.00;102240.97;5051325;28;20025;-70
2021/11/10 05:38:10;;;;;;;60.55;35.17;;;;;;;2.85;100.00;102243.50;5050086;28;20508;-71
2021/11/10 05:40:36;;;;;;;56.95;33.75;;;;;;;2.90;100.00;102241.63;5050126;28;20024;-71
2021/11/10 05:43:04;;;;;;;63.55;35.65;;;;;;;2.96;100.00;102244.97;5050945;28;20032;-71
2021/11/10 05:45:30;;;;;;;61.22;35.17;;;;;;;3.01;100.00;102242.19;5050209;28;20046;-70
2021/11/10 05:47:55;;;;;;;71.47;36.85;;;;;;;3.09;100.00;102241.09;5049935;28;20379;-70
2021/11/10 05:50:21;;;;;;;64.65;35.92;;;;;;;3.14;100.00;102240.97;5050027;28;20028;-71
2021/11/10 05:52:46;;;;;;;66.28;36.53;;;;;;;3.18;100.00;102239.97;5046254;28;20552;-71
2021/11/10 05:55:15;;;;;;;67.05;36.58;;;;;;;3.23;100.00;102244.25;5047890;28;20135;-71
2021/11/10 05:57:40;;;;;;;61.40;35.63;;;;;;;3.31;100.00;102255.50;5048063;28;20457;-71
2021/11/10 06:00:08;;;;;;;59.88;33.78;;;;;;;3.32;100.00;102245.78;5049490;28;20119;-71
2021/11/10 06:02:34;;;;;;;63.30;35.58;;;;;;;3.37;100.00;102250.03;5049397;28;20492;-72
2021/11/10 06:04:59;;;;;;;63.63;36.55;;;;;;;3.45;100.00;102258.63;5049944;28;20039;-71
2021/11/10 06:07:26;;;;;;;63.17;34.10;;;;;;;3.49;100.00;102259.44;5049674;28;20033;-72
2021/11/10 06:09:51;;;;;;;65.45;34.92;;;;;;;3.52;100.00;102259.34;5049754;28;20119;-72
2021/11/10 06:12:17;;;;;;;61.42;34.92;;;;;;;3.54;100.00;102254.84;5049460;28;20539;-71
2021/11/10 06:14:43;;;;;;;66.43;34.95;;;;;;;3.57;100.00;102262.72;5049186;28;20040;-72
2021/11/10 06:17:10;;;;;;;62.17;32.42;;;;;;;3.56;100.00;102258.34;5049754;28;20548;-72
2021/11/10 06:19:35;;;;;;;54.78;31.40;;;;;;;3.56;100.00;102271.63;5048060;28;20027;-72
2021/11/10 06:22:01;;;;;;;54.50;33.05;;;;;;;3.55;100.00;102281.34;5048355;28;20405;-72
2021/11/10 06:24:26;;;;;;;52.83;30.58;;;;;;;3.52;100.00;102272.63;5048156;28;20021;-72
2021/11/10 06:26:52;;;;;;;56.42;28.95;;;;;;;3.48;100.00;102266.50;5051084;28;20029;-74
2021/11/10 06:29:18;;;;;;;54.13;28.67;;;;;;;3.52;100.00;102299.16;5049958;28;20502;-73
2021/11/10 06:31:44;;;;;;;46.35;27.85;;;;;;;3.49;100.00;102288.63;5048342;28;20412;-72
2021/11/10 09:23:20;;;;;;;42.50;26.65;;;;;;;6.02;100.00;102294.41;5129069;27;20386;-69
2021/11/10 09:25:47;;;;;;;38.70;25.23;;;;;;;6.09;100.00;102285.25;5128066;28;20045;-68
2021/11/10 09:28:15;;;;;;;52.63;24.73;;;;;;;6.17;100.00;102284.06;5128757;27;20023;-68
2021/11/10 09:30:42;;;;;;;38.42;22.52;;;;;;;6.26;100.00;102286.34;5129260;27;20042;-69
2021/11/10 09:33:10;;;;;;;36.40;22.88;;;;;;;6.29;100.00;102278.25;5129295;27;20028;-68
2021/11/10 09:35:36;;;;;;;36.10;23.27;;;;;;;6.35;100.00;102279.78;5129254;27;20039;-69
2021/11/10 09:38:03;;;;;;;35.00;22.42;;;;;;;6.36;100.00;102269.06;5128980;27;20023;-69
2021/11/10 09:40:32;;;;;;;32.70;22.38;;;;;;;6.42;100.00;102271.50;5128829;27;20401;-69
2021/11/10 09:42:59;;;;;;;34.50;22.45;;;;;;;6.59;100.00;102277.06;5128819;27;20027;-69
2021/11/10 09:45:26;;;;;;;33.08;21.83;;;;;;;6.63;100.00;102264.44;5128976;27;20031;-69
2021/11/10 09:47:52;;;;;;;32.00;20.73;;;;;;;6.63;99.75;102254.66;5128788;27;20030;-70
2021/11/10 09:50:24;;;;;;;32.75;22.60;;;;;;;6.81;99.66;102274.38;5128874;27;20031;-68
2021/11/10 09:52:50;;;;;;;34.67;21.65;;;;;;;6.89;99.60;102273.13;5128910;27;20027;-69
2021/11/10 09:55:20;;;;;;;32.83;20.73;;;;;;;6.92;97.97;102266.78;5128509;27;20023;-69
2021/11/10 09:57:47;;;;;;;36.03;22.02;;;;;;;6.96;98.16;102263.94;5128699;27;20037;-69
2021/11/10 10:00:17;;;;;;;33.38;21.63;;;;;;;7.04;98.56;102261.78;5128738;27;20486;-69
2021/11/10 10:02:45;;;;;;;35.53;22.38;;;;;;;7.09;98.06;102250.91;5128566;27;20427;-69
2021/11/10 10:05:11;;;;;;;37.25;23.52;;;;;;;7.03;97.05;102229.84;5127250;28;20035;-70
2021/11/10 10:07:39;;;;;;;50.47;26.13;;;;;;;7.12;96.83;102241.94;5128364;27;20039;-70
2021/11/10 10:10:05;;;;;;;37.33;23.70;;;;;;;7.17;97.18;102237.25;5128509;27;20087;-70
2021/11/10 10:12:30;;;;;;;34.35;22.52;;;;;;;7.25;97.13;102245.81;5128283;27;20023;-70
2021/11/10 10:14:56;;;;;;;45.78;25.02;;;;;;;7.28;97.50;102240.34;5128382;27;20034;-70
2021/11/10 10:17:58;;;;;;;39.50;24.00;;;;;;;7.37;97.44;102253.25;5128254;27;20490;-69
2021/11/10 10:20:29;;;;;;;36.65;24.05;;;;;;;7.42;97.23;102246.81;5126761;28;20080;-69
2021/11/10 10:22:57;;;;;;;38.42;23.77;;;;;;;7.48;97.20;102241.19;5122071;27;20047;-70
2021/11/10 10:25:35;;;;;;;40.22;25.40;;;;;;;7.53;97.11;102230.28;5113142;28;20020;-70
2021/11/10 10:28:01;;;;;;;41.72;25.77;;;;;;;7.66;96.52;102243.03;5114368;27;20397;-68
2021/11/10 10:30:39;;;;;;;39.47;25.60;;;;;;;7.69;95.60;102239.34;5114164;28;20031;-69
2021/11/10 10:33:07;;;;;;;39.55;25.98;;;;;;;7.72;95.65;102233.88;5114377;28;20028;-70
2021/11/10 10:35:35;;;;;;;39.72;25.00;;;;;;;7.74;95.61;102227.50;5114216;28;20406;-71
2021/11/10 10:38:01;;;;;;;42.05;27.20;;;;;;;7.68;94.67;102211.81;5114149;28;20407;-69
2021/11/10 10:40:28;;;;;;;38.70;27.08;;;;;;;7.73;94.89;102225.78;5114110;28;20106;-70
2021/11/10 10:42:55;;;;;;;38.92;25.95;;;;;;;7.79;94.96;102224.63;5114347;28;20027;-68
2021/11/10 10:45:38;;;;;;;41.95;26.33;;;;;;;7.79;95.18;102225.50;5112573;28;20071;-69
2021/11/10 10:48:21;;;;;;;41.67;26.05;;;;;;;7.76;94.56;102220.31;5114052;28;20027;-70
2021/11/10 10:50:55;;;;;;;41.58;26.15;;;;;;;7.75;94.25;102212.38;5112684;28;20034;-69
2021/11/10 10:53:42;;;;;;;42.72;27.45;;;;;;;7.76;94.38;102214.09;5112471;28;20130;-69
2021/11/10 10:56:29;;;;;;;42.92;26.55;;;;;;;7.78;94.48;102204.22;5113688;28;20030;-68
2021/11/10 10:59:02;;;;;;;38.95;26.77;;;;;;;7.81;95.05;102212.09;5112369;28;20055;-69
2021/11/10 11:01:36;;;;;;;43.22;27.25;;;;;;;7.79;94.69;102208.59;5112074;28;20027;-70
2021/11/10 11:04:09;;;;;;;45.50;26.83;;;;;;;7.80;95.11;102208.53;5112940;28;20031;-68
2021/11/10 11:06:55;;;;;;;41.17;26.63;;;;;;;7.79;95.28;102204.16;5113276;28;20031;-71
2021/11/10 11:09:41;;;;;;;44.35;28.30;;;;;;;7.82;95.62;102197.78;5113488;28;20027;-69
2021/11/10 11:12:18;;;;;;;42.10;27.10;;;;;;;7.80;94.80;102192.50;5113354;28;20034;-68
2021/11/10 11:15:02;;;;;;;43.17;26.33;;;;;;;7.78;94.84;102185.53;5113714;28;20026;-68
2021/11/10 11:17:32;;;;;;;41.85;27.80;;;;;;;7.82;95.26;102192.44;5113554;28;20019;-70
2021/11/10 11:19:57;;;;;;;43.92;27.55;;;;;;;7.83;95.11;102188.84;5113376;28;20039;-70
2021/11/10 11:22:30;;;;;;;44.95;27.00;;;;;;;7.80;95.43;102176.50;5111551;28;20048;-69
2021/11/10 11:24:56;;;;;;;42.42;27.20;;;;;;;7.83;95.31;102180.84;5111897;28;20027;-69
2021/11/10 11:27:28;;;;;;;39.05;26.90;;;;;;;7.81;96.18;102164.00;5113423;28;20058;-70
2021/11/10 11:30:14;;;;;;;42.45;26.83;;;;;;;7.91;96.06;102167.97;5113379;28;20031;-69
2021/11/10 11:32:49;;;;;;;41.38;27.48;;;;;;;7.93;95.70;102166.94;5111162;28;20042;-69
2021/11/10 11:35:29;;;;;;;42.58;28.38;;;;;;;7.99;95.99;102179.16;5110725;28;20055;-69
2021/11/10 11:37:55;;;;;;;45.25;27.70;;;;;;;8.04;95.50;102161.97;5113150;28;20108;-69
2021/11/10 11:40:23;;;;;;;37.60;25.70;;;;;;;8.07;95.08;102152.94;5113025;28;20122;-70
2021/11/10 11:42:54;;;;;;;37.85;25.90;;;;;;;8.06;95.09;102156.56;5112916;28;20073;-70
2021/11/10 11:45:23;;;;;;;41.67;27.60;;;;;;;8.00;95.93;102135.47;5112814;28;20490;-70
2021/11/10 11:47:50;;;;;;;39.58;26.52;;;;;;;8.12;95.47;102145.56;5112825;28;20023;-68
2021/11/10 11:50:18;;;;;;;39.10;26.30;;;;;;;8.15;95.34;102146.28;5112968;28;20063;-70
2021/11/10 11:52:44;;;;;;;39.33;25.90;;;;;;;8.23;95.85;102153.97;5111762;28;20012;-68
2021/11/10 11:55:15;;;;;;;36.05;26.40;;;;;;;8.02;95.08;102106.84;5111392;28;20114;-69
2021/11/10 11:57:48;;;;;;;39.00;27.17;;;;;;;8.18;95.55;102138.13;5112620;28;20027;-69
2021/11/10 12:00:17;;;;;;;41.67;27.52;;;;;;;8.21;95.66;102129.06;5112621;28;20023;-70
2021/11/10 12:02:50;;;;;;;38.45;28.23;;;;;;;8.30;95.85;102134.00;5112732;28;20047;-68
2021/11/10 12:05:23;;;;;;;40.35;28.27;;;;;;;8.38;95.94;102127.31;5112616;28;20042;-70
2021/11/10 12:07:57;;;;;;;42.22;28.70;;;;;;;8.43;95.57;102119.97;5111301;28;20051;-69
2021/11/10 12:10:22;;;;;;;41.50;27.48;;;;;;;8.53;95.44;102123.91;5112253;28;20028;-69
2021/11/10 12:13:11;;;;;;;39.47;26.85;;;;;;;8.57;95.17;102119.25;5112174;28;20432;-68
2021/11/10 12:16:10;;;;;;;49.90;29.33;;;;;;;8.61;94.79;102123.50;5111115;28;20046;-68
2021/11/10 12:18:50;;;;;;;46.70;29.40;;;;;;;8.48;94.72;102076.94;5112113;28;20095;-71
2021/11/10 12:21:20;;;;;;;42.63;29.35;;;;;;;8.68;95.16;102111.56;5112046;28;20062;-70
2021/11/10 12:23:55;;;;;;;37.22;27.65;;;;;;;8.71;95.00;102100.69;5112501;28;20081;-70
2021/11/10 12:26:24;;;;;;;36.33;25.45;;;;;;;8.72;94.96;102099.75;5112147;28;20028;-69
2021/11/10 12:29:01;;;;;;;38.38;27.80;;;;;;;8.74;94.55;102100.53;5110718;28;20050;-72
2021/11/10 12:31:31;;;;;;;37.78;25.90;;;;;;;8.74;94.60;102084.50;5111865;28;20728;-69
2021/11/10 12:34:19;;;;;;;46.58;28.15;;;;;;;8.67;95.28;102080.38;5112313;28;20024;-70
2021/11/10 12:37:05;;;;;;;40.92;27.20;;;;;;;8.76;94.32;102074.56;5111882;28;20055;-69
2021/11/10 12:39:34;;;;;;;36.33;26.25;;;;;;;8.78;94.97;102086.03;5111725;28;20027;-70
2021/11/10 12:42:04;;;;;;;39.65;28.00;;;;;;;8.75;94.98;102079.06;5111401;28;20093;-69
2021/11/10 12:44:43;;;;;;;39.40;28.33;;;;;;;8.77;95.71;102066.44;5110454;28;20023;-69
2021/11/10 12:47:09;;;;;;;36.35;26.48;;;;;;;8.79;95.86;102066.38;5111721;28;20368;-70
2021/11/10 12:49:36;;;;;;;43.17;27.85;;;;;;;8.75;96.14;102054.97;5110375;28;20024;-69
2021/11/10 12:52:11;;;;;;;37.35;27.30;;;;;;;8.85;96.20;102066.06;5110345;28;20012;-70
2021/11/10 12:54:38;;;;;;;36.63;26.48;;;;;;;8.67;96.23;102030.44;5110386;28;20027;-69
2021/11/10 12:57:05;;;;;;;36.22;26.08;;;;;;;8.80;95.75;102047.56;5111698;28;20094;-69
2021/11/10 12:59:35;;;;;;;38.47;26.67;;;;;;;8.86;95.91;102051.72;5111842;28;20031;-69
2021/11/10 13:02:11;;;;;;;34.45;24.98;;;;;;;8.54;96.17;101980.31;5111573;28;20019;-70
2021/11/10 13:04:37;;;;;;;37.08;24.48;;;;;;;8.87;95.77;102034.75;5111936;28;20754;-69
2021/11/10 13:07:08;;;;;;;38.33;24.80;;;;;;;8.95;95.16;102049.44;5111467;28;20063;-68
2021/11/10 13:09:35;;;;;;;31.15;23.92;;;;;;;8.94;94.94;102044.16;5111511;28;20020;-69
2021/11/10 13:12:06;;;;;;;35.20;24.02;;;;;;;8.98;94.91;102049.25;5110253;28;20448;-69
2021/11/10 13:14:42;;;;;;;32.13;23.08;;;;;;;8.99;94.68;102037.59;5111506;28;20383;-69
2021/11/10 13:17:21;;;;;;;32.38;23.63;;;;;;;8.98;94.42;102030.53;5111382;28;20031;-69
2021/11/10 13:19:50;;;;;;;31.33;22.13;;;;;;;9.11;93.88;102041.44;5110308;28;20471;-69
2021/11/10 13:22:38;;;;;;;29.88;20.50;;;;;;;9.10;93.50;102039.72;5111177;28;20054;-68
2021/11/10 13:25:09;;;;;;;32.92;21.50;;;;;;;9.15;92.98;102037.63;5110208;28;20398;-68
2021/11/10 13:27:38;;;;;;;29.70;20.88;;;;;;;9.17;93.12;102028.59;5111222;28;20035;-69
2021/11/10 13:30:07;;;;;;;29.90;21.40;;;;;;;9.21;93.09;102029.25;5111015;28;20454;-69
2021/11/10 13:32:42;;;;;;;29.40;21.33;;;;;;;9.16;92.43;102017.97;5109326;28;20034;-69
2021/11/10 13:35:08;;;;;;;29.60;20.88;;;;;;;9.27;92.55;102034.28;5110993;28;20046;-69
2021/11/10 13:37:52;;;;;;;29.88;20.38;;;;;;;9.26;92.53;102024.53;5111278;28;20043;-68
2021/11/10 13:40:24;;;;;;;30.23;20.48;;;;;;;9.31;92.73;102025.13;5111140;28;20031;-69
2021/11/10 13:42:54;;;;;;;28.45;20.73;;;;;;;9.35;92.58;102024.00;5110146;28;20031;-68
2021/11/10 13:45:22;;;;;;;30.77;20.60;;;;;;;9.30;93.06;102010.03;5110078;28;20046;-69
2021/11/10 13:48:00;;;;;;;27.85;20.13;;;;;;;9.32;93.31;102008.09;5111434;28;20134;-69
2021/11/10 13:50:39;;;;;;;28.85;20.85;;;;;;;9.38;93.62;102009.59;5110939;28;20043;-69
2021/11/10 13:53:07;;;;;;;31.38;21.52;;;;;;;9.43;93.83;102018.22;5109892;28;20080;-67
2021/11/10 13:55:35;;;;;;;30.08;21.92;;;;;;;9.43;93.74;102012.88;5109567;28;20016;-69
2021/11/10 13:58:12;;;;;;;30.15;21.48;;;;;;;9.25;94.21;101978.16;5110811;28;20405;-69
2021/11/10 14:00:39;;;;;;;32.00;23.45;;;;;;;9.40;94.12;101991.63;5114684;28;20023;-67
2021/11/10 14:03:05;;;;;;;31.52;22.02;;;;;;;9.42;94.23;101989.72;5114641;28;20020;-69
2021/11/10 14:05:31;;;;;;;35.53;23.05;;;;;;;9.48;94.17;102002.78;5114750;28;20501;-68
2021/11/10 14:07:56;;;;;;;34.35;24.00;;;;;;;9.44;94.31;101988.69;5106038;28;20114;-67
2021/11/10 14:10:26;;;;;;;34.20;23.13;;;;;;;9.47;93.76;101988.50;5106535;28;20388;-69